Station Historical Data
Daily Summary for May 30, 2017 Units:  English    Metric   Both
« Previous Day
Next Day »
Daily Weekly Monthly Yearly Custom
  High: Low: Average:
Temperature: 74.6 °F 57.7 °F 65.5 °F
Dew Point: 58.2 °F 46.7 °F 52.8 °F
Humidity: 88% 41% 65%
Wind Speed: 14.0mph 0.0mph 4.1mph
Wind Gust: 19.0mph - -
Wind- - SW
Pressure: 29.95 in 29.87 in -
Precipitation: 0.00 in    
Historical Graphs
 
 
Tabular Data for May 30, 2017
Time Temperature Dew Point Pressure Wind Wind Speed Wind Gust Humidity Rainfall Rate (Hourly)
00:04 64.7 °F 53.1 °F 29.88 in SW 1.0 mph 6.0 mph 66% 0.00 in
00:09 64.6 °F 53.0 °F 29.88 in WSW 2.0 mph 6.0 mph 66% 0.00 in
00:14 64.6 °F 53.4 °F 29.88 in WSW 2.0 mph 5.0 mph 67% 0.00 in
00:19 64.4 °F 53.2 °F 29.88 in West 2.0 mph 4.0 mph 67% 0.00 in
00:24 64.0 °F 53.6 °F 29.88 in WSW 2.0 mph 4.0 mph 69% 0.00 in
00:29 63.6 °F 53.6 °F 29.88 in WSW 2.0 mph 4.0 mph 70% 0.00 in
00:34 63.0 °F 53.8 °F 29.87 in SW 2.0 mph 3.0 mph 72% 0.00 in
00:39 62.5 °F 53.7 °F 29.87 in SW 1.0 mph 2.0 mph 73% 0.00 in
00:44 61.9 °F 53.5 °F 29.87 in SW 1.0 mph 2.0 mph 74% 0.00 in
00:49 61.3 °F 53.3 °F 29.87 in Calm   1.0 mph 75% 0.00 in
00:54 60.9 °F 53.3 °F 29.87 in Calm   1.0 mph 76% 0.00 in
00:59 60.6 °F 53.0 °F 29.87 in Calm     76% 0.00 in
01:04 60.4 °F 53.2 °F 29.87 in SW 1.0 mph 3.0 mph 77% 0.00 in
01:09 60.9 °F 53.3 °F 29.87 in SW 2.0 mph 7.0 mph 76% 0.00 in
01:14 61.6 °F 53.6 °F 29.87 in SSW 2.0 mph 5.0 mph 75% 0.00 in
01:19 62.0 °F 53.6 °F 29.87 in SSW 1.0 mph 6.0 mph 74% 0.00 in
01:24 61.8 °F 53.4 °F 29.87 in SSW 2.0 mph 6.0 mph 74% 0.00 in
01:29 61.7 °F 53.7 °F 29.87 in SSW 1.0 mph 4.0 mph 75% 0.00 in
01:34 61.4 °F 53.4 °F 29.87 in Calm   3.0 mph 75% 0.00 in
01:39 61.1 °F 53.5 °F 29.87 in Calm   2.0 mph 76% 0.00 in
01:44 60.9 °F 53.3 °F 29.88 in Calm   2.0 mph 76% 0.00 in
01:49 61.2 °F 53.6 °F 29.89 in WSW 1.0 mph 5.0 mph 76% 0.00 in
01:54 61.6 °F 54.0 °F 29.89 in West 1.0 mph 3.0 mph 76% 0.00 in
01:59 61.8 °F 53.8 °F 29.89 in Calm   3.0 mph 75% 0.00 in
02:04 62.0 °F 54.0 °F 29.89 in Calm   2.0 mph 75% 0.00 in
02:09 62.1 °F 54.4 °F 29.89 in West 1.0 mph 2.0 mph 76% 0.00 in
02:14 62.1 °F 54.8 °F 29.90 in WSW 2.0 mph 4.0 mph 77% 0.00 in
02:19 62.2 °F 54.9 °F 29.91 in West 2.0 mph 6.0 mph 77% 0.00 in
02:24 62.4 °F 55.1 °F 29.91 in West 5.0 mph 17.0 mph 77% 0.00 in
02:29 62.4 °F 55.1 °F 29.90 in West 7.0 mph 17.0 mph 77% 0.00 in
02:34 61.9 °F 55.0 °F 29.92 in West 5.0 mph 13.0 mph 78% 0.01 in
02:39 61.3 °F 54.4 °F 29.92 in WSW 6.0 mph 11.0 mph 78% 0.02 in
02:44 60.6 °F 54.4 °F 29.92 in SSW 2.0 mph 7.0 mph 80% 0.04 in
02:49 60.0 °F 54.5 °F 29.92 in SW 3.0 mph 7.0 mph 82% 0.05 in
02:54 59.5 °F 54.7 °F 29.91 in SSW 2.0 mph 7.0 mph 84% 0.06 in
02:59 59.2 °F 54.7 °F 29.90 in South 2.0 mph 7.0 mph 85% 0.07 in
03:04 59.1 °F 54.6 °F 29.89 in Calm   3.0 mph 85% 0.07 in
03:09 59.0 °F 54.8 °F 29.88 in Calm   2.0 mph 86% 0.07 in
03:14 58.9 °F 54.7 °F 29.87 in Calm     86% 0.07 in
03:19 58.6 °F 54.4 °F 29.87 in South 4.0 mph 4.0 mph 86% 0.07 in
03:24 58.5 °F 54.6 °F 29.88 in South 1.0 mph 4.0 mph 87% 0.07 in
03:29 58.5 °F 54.6 °F 29.88 in SSE 3.0 mph 6.0 mph 87% 0.07 in
03:34 58.5 °F 54.6 °F 29.88 in SSE 3.0 mph 6.0 mph 87% 0.06 in
03:39 58.6 °F 55.1 °F 29.89 in SSW 1.0 mph 4.0 mph 88% 0.05 in
03:44 58.6 °F 55.1 °F 29.90 in SSW 2.0 mph 4.0 mph 88% 0.03 in
03:49 58.4 °F 54.9 °F 29.90 in South 2.0 mph 6.0 mph 88% 0.02 in
03:54 58.4 °F 54.9 °F 29.90 in SSW 1.0 mph 4.0 mph 88% 0.01 in
03:59 58.4 °F 54.9 °F 29.90 in South 2.0 mph 5.0 mph 88% 0.00 in
04:04 58.4 °F 54.9 °F 29.90 in South 2.0 mph 7.0 mph 88% 0.00 in
04:09 58.4 °F 54.9 °F 29.90 in South 3.0 mph 7.0 mph 88% 0.00 in
04:14 58.4 °F 54.9 °F 29.90 in South 3.0 mph 4.0 mph 88% 0.00 in
04:19 58.4 °F 54.9 °F 29.89 in SSE 2.0 mph 4.0 mph 88% 0.01 in
04:24 58.4 °F 54.9 °F 29.89 in SSE 2.0 mph 4.0 mph 88% 0.01 in
04:29 58.3 °F 54.8 °F 29.89 in SSE 1.0 mph 4.0 mph 88% 0.01 in
04:34 58.2 °F 54.7 °F 29.89 in Calm     88% 0.01 in
04:39 58.1 °F 54.2 °F 29.89 in Calm     87% 0.01 in
04:44 58.0 °F 54.2 °F 29.89 in Calm   3.0 mph 87% 0.01 in
04:49 58.0 °F 54.5 °F 29.89 in SSW 1.0 mph 4.0 mph 88% 0.01 in
04:54 58.0 °F 54.5 °F 29.90 in South 2.0 mph 4.0 mph 88% 0.01 in
04:59 58.1 °F 54.6 °F 29.90 in SSW 2.0 mph 4.0 mph 88% 0.01 in
05:04 58.1 °F 54.2 °F 29.90 in South 2.0 mph 4.0 mph 87% 0.01 in
05:09 58.0 °F 54.2 °F 29.90 in South 3.0 mph 5.0 mph 87% 0.01 in
05:14 58.1 °F 54.2 °F 29.89 in South 2.0 mph 5.0 mph 87% 0.01 in
05:19 58.1 °F 54.2 °F 29.90 in SSW 2.0 mph 5.0 mph 87% 0.00 in
05:24 58.1 °F 54.2 °F 29.90 in SSW 2.0 mph 5.0 mph 87% 0.00 in
05:29 58.0 °F 54.2 °F 29.89 in SSW 2.0 mph 5.0 mph 87% 0.00 in
05:34 57.9 °F 53.7 °F 29.89 in Calm   3.0 mph 86% 0.00 in
05:39 57.8 °F 54.0 °F 29.90 in Calm     87% 0.00 in
05:44 57.8 °F 54.0 °F 29.90 in SSE 1.0 mph 4.0 mph 87% 0.00 in
05:49 57.7 °F 53.9 °F 29.90 in South 2.0 mph 4.0 mph 87% 0.00 in
05:54 57.7 °F 53.9 °F 29.91 in SSW 1.0 mph 4.0 mph 87% 0.00 in
05:59 57.7 °F 53.9 °F 29.91 in SSW 2.0 mph 5.0 mph 87% 0.00 in
06:04 57.8 °F 54.0 °F 29.91 in SSW 2.0 mph 6.0 mph 87% 0.00 in
06:09 58.1 °F 54.2 °F 29.91 in SSW 1.0 mph 6.0 mph 87% 0.00 in
06:14 58.2 °F 54.3 °F 29.91 in SSW 1.0 mph 3.0 mph 87% 0.00 in
06:19 58.4 °F 54.2 °F 29.91 in SSW 1.0 mph 3.0 mph 86% 0.00 in
06:24 58.5 °F 54.3 °F 29.91 in Calm   3.0 mph 86% 0.00 in
06:29 58.7 °F 54.5 °F 29.91 in Calm     86% 0.00 in
06:34 58.8 °F 54.6 °F 29.91 in Calm     86% 0.00 in
06:39 59.0 °F 55.1 °F 29.91 in Calm     87% 0.00 in
06:44 59.1 °F 55.2 °F 29.92 in Calm     87% 0.00 in
06:49 59.3 °F 55.4 °F 29.92 in Calm     87% 0.00 in
06:54 59.4 °F 55.5 °F 29.92 in Calm     87% 0.00 in
06:59 59.7 °F 55.8 °F 29.92 in Calm     87% 0.00 in
07:04 60.1 °F 56.2 °F 29.92 in Calm     87% 0.00 in
07:09 60.5 °F 56.3 °F 29.91 in Calm   2.0 mph 86% 0.00 in
07:14 60.9 °F 56.0 °F 29.92 in Calm   2.0 mph 84% 0.00 in
07:19 61.3 °F 55.8 °F 29.92 in SSW 1.0 mph 5.0 mph 82% 0.00 in
07:24 61.4 °F 55.9 °F 29.92 in South 1.0 mph 3.0 mph 82% 0.00 in
07:29 61.3 °F 55.4 °F 29.92 in South 1.0 mph 4.0 mph 81% 0.00 in
07:34 61.2 °F 55.3 °F 29.92 in South 2.0 mph 5.0 mph 81% 0.00 in
07:39 61.2 °F 55.3 °F 29.92 in SSW 1.0 mph 5.0 mph 81% 0.00 in
07:44 61.3 °F 55.8 °F 29.92 in South 1.0 mph 3.0 mph 82% 0.00 in
07:49 61.3 °F 55.8 °F 29.93 in South 2.0 mph 4.0 mph 82% 0.00 in
07:54 61.3 °F 55.8 °F 29.93 in SSW 2.0 mph 4.0 mph 82% 0.00 in
07:59 61.4 °F 55.9 °F 29.93 in SW 3.0 mph 4.0 mph 82% 0.00 in
08:04 61.6 °F 56.0 °F 29.94 in SSW 1.0 mph 7.0 mph 82% 0.00 in
08:09 61.6 °F 55.7 °F 29.94 in SW 2.0 mph 5.0 mph 81% 0.00 in
08:14 61.6 °F 55.7 °F 29.94 in SW 2.0 mph 5.0 mph 81% 0.00 in
08:19 61.6 °F 56.0 °F 29.95 in WSW 4.0 mph 6.0 mph 82% 0.00 in
08:24 61.8 °F 56.2 °F 29.95 in SSW 2.0 mph 8.0 mph 82% 0.00 in
08:29 62.4 °F 57.2 °F 29.95 in SW 4.0 mph 5.0 mph 83% 0.00 in
08:34 62.8 °F 56.5 °F 29.94 in SW 3.0 mph 8.0 mph 80% 0.00 in
08:39 63.8 °F 57.5 °F 29.94 in SW 3.0 mph 8.0 mph 80% 0.00 in
08:44 64.8 °F 58.1 °F 29.94 in SW 3.0 mph 7.0 mph 79% 0.00 in
08:49 65.6 °F 58.2 °F 29.95 in SW 3.0 mph 8.0 mph 77% 0.00 in
08:54 65.3 °F 57.5 °F 29.95 in SW 5.0 mph 10.0 mph 76% 0.00 in
08:59 65.3 °F 57.2 °F 29.94 in SW 8.0 mph 9.0 mph 75% 0.00 in
09:04 64.7 °F 56.6 °F 29.93 in WSW 5.0 mph 9.0 mph 75% 0.00 in
09:09 64.4 °F 56.7 °F 29.93 in WSW 5.0 mph 10.0 mph 76% 0.00 in
09:14 64.9 °F 57.9 °F 29.94 in SW 5.0 mph 10.0 mph 78% 0.00 in
09:19 65.4 °F 57.3 °F 29.93 in SW 6.0 mph 10.0 mph 75% 0.00 in
09:24 65.8 °F 57.7 °F 29.94 in SW 3.0 mph 7.0 mph 75% 0.00 in
09:29 65.6 °F 56.3 °F 29.94 in WSW 4.0 mph 10.0 mph 72% 0.00 in
09:34 65.6 °F 57.1 °F 29.94 in SW 4.0 mph 10.0 mph 74% 0.00 in
09:39 65.3 °F 56.8 °F 29.93 in SW 3.0 mph 7.0 mph 74% 0.00 in
09:44 65.8 °F 57.7 °F 29.94 in SW 4.0 mph 7.0 mph 75% 0.00 in
09:49 65.8 °F 56.5 °F 29.93 in SW 3.0 mph 9.0 mph 72% 0.00 in
09:54 65.7 °F 56.0 °F 29.93 in SW 3.0 mph 8.0 mph 71% 0.00 in
09:59 66.3 °F 58.1 °F 29.93 in SW 4.0 mph 7.0 mph 75% 0.00 in
10:04 66.7 °F 56.2 °F 29.93 in SSW 3.0 mph 7.0 mph 69% 0.00 in
10:09 67.0 °F 56.5 °F 29.93 in SW 4.0 mph 9.0 mph 69% 0.00 in
10:14 67.7 °F 56.3 °F 29.93 in SSW 4.0 mph 9.0 mph 67% 0.00 in
10:19 68.1 °F 56.7 °F 29.93 in SW 4.0 mph 8.0 mph 67% 0.00 in
10:24 68.6 °F 56.4 °F 29.93 in SW 4.0 mph 9.0 mph 65% 0.00 in
10:29 68.7 °F 56.9 °F 29.93 in SW 4.0 mph 11.0 mph 66% 0.00 in
10:34 68.5 °F 55.4 °F 29.92 in SW 5.0 mph 11.0 mph 63% 0.00 in
10:39 69.0 °F 55.4 °F 29.92 in SW 8.0 mph 11.0 mph 62% 0.00 in
10:44 68.3 °F 55.6 °F 29.93 in SW 3.0 mph 9.0 mph 64% 0.00 in
10:49 68.7 °F 54.7 °F 29.93 in West 6.0 mph 11.0 mph 61% 0.00 in
10:54 68.7 °F 56.0 °F 29.93 in WNW 5.0 mph 9.0 mph 64% 0.00 in
10:59 68.4 °F 56.6 °F 29.93 in WSW 5.0 mph 10.0 mph 66% 0.00 in
11:04 68.6 °F 55.5 °F 29.93 in WSW 5.0 mph 10.0 mph 63% 0.00 in
11:09 68.7 °F 54.7 °F 29.93 in WSW 5.0 mph 12.0 mph 61% 0.00 in
11:14 68.6 °F 54.6 °F 29.93 in WSW 6.0 mph 12.0 mph 61% 0.00 in
11:19 68.6 °F 55.9 °F 29.94 in SW 6.0 mph 11.0 mph 64% 0.00 in
11:24 68.3 °F 54.8 °F 29.94 in West 7.0 mph 10.0 mph 62% 0.00 in
11:29 68.7 °F 54.3 °F 29.94 in WSW 3.0 mph 10.0 mph 60% 0.00 in
11:34 68.5 °F 55.0 °F 29.94 in WSW 5.0 mph 11.0 mph 62% 0.00 in
11:39 68.1 °F 53.7 °F 29.94 in SW 5.0 mph 11.0 mph 60% 0.00 in
11:44 68.0 °F 54.0 °F 29.94 in West 6.0 mph 10.0 mph 61% 0.00 in
11:49 67.8 °F 54.3 °F 29.94 in WSW 1.0 mph 13.0 mph 62% 0.00 in
11:54 67.9 °F 54.4 °F 29.94 in WSW 2.0 mph 9.0 mph 62% 0.00 in
11:59 68.8 °F 55.2 °F 29.94 in West 5.0 mph 8.0 mph 62% 0.00 in
12:04 68.6 °F 54.6 °F 29.93 in West 5.0 mph 10.0 mph 61% 0.00 in
12:09 68.4 °F 54.4 °F 29.94 in WSW 5.0 mph 10.0 mph 61% 0.00 in
12:14 68.3 °F 53.4 °F 29.94 in SW 5.0 mph 10.0 mph 59% 0.00 in
12:19 68.3 °F 54.3 °F 29.93 in WSW 6.0 mph 9.0 mph 61% 0.00 in
12:24 68.5 °F 54.5 °F 29.93 in NW 5.0 mph 9.0 mph 61% 0.00 in
12:29 69.1 °F 55.5 °F 29.93 in West 2.0 mph 8.0 mph 62% 0.00 in
12:34 68.7 °F 54.7 °F 29.93 in WSW 4.0 mph 10.0 mph 61% 0.00 in
12:39 69.3 °F 56.6 °F 29.93 in WSW 5.0 mph 10.0 mph 64% 0.00 in
12:44 70.5 °F 55.0 °F 29.93 in WSW 5.0 mph 11.0 mph 58% 0.00 in
12:49 70.1 °F 54.6 °F 29.93 in SW 5.0 mph 11.0 mph 58% 0.00 in
12:54 70.8 °F 55.3 °F 29.93 in SW 4.0 mph 9.0 mph 58% 0.00 in
12:59 71.2 °F 54.2 °F 29.92 in WSW 4.0 mph 10.0 mph 55% 0.00 in
13:04 71.4 °F 52.9 °F 29.92 in SW 5.0 mph 8.0 mph 52% 0.00 in
13:09 71.9 °F 54.9 °F 29.92 in SSW 5.0 mph 8.0 mph 55% 0.00 in
13:14 72.1 °F 53.0 °F 29.92 in SW 5.0 mph 11.0 mph 51% 0.00 in
13:19 72.5 °F 55.4 °F 29.91 in South 4.0 mph 10.0 mph 55% 0.00 in
13:24 72.9 °F 52.1 °F 29.91 in WNW 2.0 mph 8.0 mph 48% 0.00 in
13:29 73.4 °F 54.2 °F 29.90 in West 5.0 mph 7.0 mph 51% 0.00 in
13:34 73.3 °F 51.8 °F 29.90 in WSW 4.0 mph 11.0 mph 47% 0.00 in
13:39 73.7 °F 52.2 °F 29.90 in West 6.0 mph 14.0 mph 47% 0.00 in
13:44 73.6 °F 50.3 °F 29.90 in WSW 6.0 mph 14.0 mph 44% 0.00 in
13:49 73.4 °F 51.4 °F 29.90 in WSW 6.0 mph 14.0 mph 46% 0.00 in
13:54 73.6 °F 49.7 °F 29.90 in WSW 6.0 mph 14.0 mph 43% 0.00 in
13:59 73.8 °F 51.7 °F 29.90 in WSW 6.0 mph 14.0 mph 46% 0.00 in
14:04 73.9 °F 52.4 °F 29.90 in WSW 6.0 mph 14.0 mph 47% 0.00 in
14:09 73.7 °F 53.3 °F 29.89 in WSW 7.0 mph 14.0 mph 49% 0.00 in
14:14 73.9 °F 51.2 °F 29.89 in NW 4.0 mph 12.0 mph 45% 0.00 in
14:19 73.9 °F 52.4 °F 29.88 in West 6.0 mph 11.0 mph 47% 0.00 in
14:24 74.2 °F 50.9 °F 29.88 in SW 10.0 mph 16.0 mph 44% 0.00 in
14:29 74.0 °F 50.7 °F 29.88 in SSW 4.0 mph 12.0 mph 44% 0.00 in
14:34 73.9 °F 48.7 °F 29.88 in WSW 7.0 mph 14.0 mph 41% 0.00 in
14:39 73.8 °F 50.5 °F 29.88 in WSW 7.0 mph 14.0 mph 44% 0.00 in
14:44 74.5 °F 52.4 °F 29.88 in WSW 6.0 mph 13.0 mph 46% 0.00 in
14:49 74.1 °F 49.5 °F 29.88 in WSW 11.0 mph 12.0 mph 42% 0.00 in
14:54 74.2 °F 53.8 °F 29.88 in SW 7.0 mph 11.0 mph 49% 0.00 in
14:59 74.6 °F 50.6 °F 29.88 in SW 6.0 mph 12.0 mph 43% 0.00 in
15:04 74.4 °F 51.7 °F 29.88 in West 6.0 mph 15.0 mph 45% 0.00 in
15:09 74.1 °F 51.4 °F 29.88 in WSW 7.0 mph 15.0 mph 45% 0.00 in
15:14 74.3 °F 51.6 °F 29.88 in WSW 7.0 mph 14.0 mph 45% 0.00 in
15:19 74.0 °F 50.1 °F 29.88 in SW 8.0 mph 16.0 mph 43% 0.00 in
15:24 72.9 °F 49.7 °F 29.88 in SW 9.0 mph 16.0 mph 44% 0.00 in
15:29 72.1 °F 50.2 °F 29.88 in SW 7.0 mph 12.0 mph 46% 0.00 in
15:34 71.8 °F 51.0 °F 29.88 in WSW 7.0 mph 13.0 mph 48% 0.00 in
15:39 72.4 °F 49.9 °F 29.88 in WSW 7.0 mph 18.0 mph 45% 0.00 in
15:44 72.5 °F 49.9 °F 29.88 in WSW 7.0 mph 18.0 mph 45% 0.00 in
15:49 72.6 °F 52.9 °F 29.88 in WSW 7.0 mph 14.0 mph 50% 0.00 in
15:54 73.6 °F 52.1 °F 29.88 in WSW 6.0 mph 15.0 mph 47% 0.00 in
15:59 73.3 °F 51.3 °F 29.88 in WSW 7.0 mph 15.0 mph 46% 0.00 in
16:04 72.7 °F 50.1 °F 29.88 in WSW 7.0 mph 15.0 mph 45% 0.00 in
16:09 72.6 °F 51.2 °F 29.88 in WSW 8.0 mph 14.0 mph 47% 0.00 in
16:14 73.3 °F 52.4 °F 29.89 in West 8.0 mph 15.0 mph 48% 0.00 in
16:19 73.0 °F 50.4 °F 29.89 in SW 14.0 mph 17.0 mph 45% 0.00 in
16:24 72.9 °F 52.1 °F 29.89 in WSW 7.0 mph 14.0 mph 48% 0.00 in
16:29 72.3 °F 50.4 °F 29.89 in SW 7.0 mph 16.0 mph 46% 0.00 in
16:34 72.4 °F 51.6 °F 29.89 in WSW 5.0 mph 19.0 mph 48% 0.00 in
16:39 72.7 °F 50.7 °F 29.89 in WNW 5.0 mph 15.0 mph 46% 0.00 in
16:49 72.7 °F 51.3 °F 29.89 in WSW 6.0 mph 17.0 mph 47% 0.00 in
16:54 72.1 °F 51.3 °F 29.89 in WSW 8.0 mph 17.0 mph 48% 0.00 in
17:04 72.5 °F 52.8 °F 29.89 in West 7.0 mph 18.0 mph 50% 0.00 in
17:09 72.3 °F 50.9 °F 29.89 in SW 11.0 mph 14.0 mph 47% 0.00 in
17:14 71.6 °F 50.3 °F 29.89 in WSW 8.0 mph 15.0 mph 47% 0.00 in
17:19 70.6 °F 51.1 °F 29.89 in WSW 9.0 mph 16.0 mph 50% 0.00 in
17:24 70.7 °F 52.2 °F 29.90 in SW 11.0 mph 13.0 mph 52% 0.00 in
17:34 70.1 °F 50.6 °F 29.89 in WSW 9.0 mph 10.0 mph 50% 0.00 in
17:39 70.1 °F 51.7 °F 29.90 in WSW 7.0 mph 12.0 mph 52% 0.00 in
17:44 70.6 °F 51.1 °F 29.90 in WSW 6.0 mph 13.0 mph 50% 0.00 in
17:49 70.7 °F 51.1 °F 29.90 in WSW 7.0 mph 15.0 mph 50% 0.00 in
17:54 70.9 °F 50.8 °F 29.89 in WSW 7.0 mph 15.0 mph 49% 0.00 in
17:59 71.1 °F 48.1 °F 29.89 in SSW 13.0 mph 17.0 mph 44% 0.00 in
18:04 71.0 °F 49.2 °F 29.89 in West 8.0 mph 13.0 mph 46% 0.00 in
18:09 70.5 °F 49.9 °F 29.90 in WSW 6.0 mph 13.0 mph 48% 0.00 in
18:14 70.5 °F 51.0 °F 29.90 in WSW 6.0 mph 14.0 mph 50% 0.00 in
18:19 70.3 °F 51.3 °F 29.90 in SW 7.0 mph 14.0 mph 51% 0.00 in
18:24 69.7 °F 51.3 °F 29.90 in WSW 7.0 mph 13.0 mph 52% 0.00 in
18:29 69.4 °F 50.5 °F 29.89 in WSW 8.0 mph 15.0 mph 51% 0.00 in
18:34 69.1 °F 50.2 °F 29.90 in SW 9.0 mph 18.0 mph 51% 0.00 in
18:39 69.0 °F 50.6 °F 29.90 in WSW 6.0 mph 16.0 mph 52% 0.00 in
18:44 69.0 °F 50.6 °F 29.90 in WSW 6.0 mph 13.0 mph 52% 0.00 in
18:49 68.9 °F 50.0 °F 29.89 in WSW 13.0 mph 16.0 mph 51% 0.00 in
18:54 68.5 °F 50.2 °F 29.90 in WSW 9.0 mph 13.0 mph 52% 0.00 in
18:59 68.2 °F 50.4 °F 29.90 in SW 4.0 mph 14.0 mph 53% 0.00 in
19:04 68.0 °F 50.2 °F 29.90 in WSW 11.0 mph 14.0 mph 53% 0.00 in
19:09 67.7 °F 50.5 °F 29.90 in WSW 8.0 mph 14.0 mph 54% 0.00 in
19:14 67.5 °F 50.8 °F 29.90 in WSW 8.0 mph 14.0 mph 55% 0.00 in
19:19 67.5 °F 50.8 °F 29.90 in WSW 6.0 mph 14.0 mph 55% 0.00 in
19:24 67.5 °F 50.8 °F 29.90 in WSW 6.0 mph 15.0 mph 55% 0.00 in
19:29 67.1 °F 49.9 °F 29.91 in WSW 8.0 mph 16.0 mph 54% 0.00 in
19:34 66.9 °F 50.2 °F 29.90 in WSW 8.0 mph 16.0 mph 55% 0.00 in
19:39 66.9 °F 51.2 °F 29.91 in WSW 6.0 mph 13.0 mph 57% 0.00 in
19:44 66.6 °F 50.9 °F 29.91 in WSW 3.0 mph 14.0 mph 57% 0.00 in
19:49 66.4 °F 50.7 °F 29.91 in West 2.0 mph 11.0 mph 57% 0.00 in
19:54 66.3 °F 50.6 °F 29.91 in SW 8.0 mph 11.0 mph 57% 0.00 in
19:59 66.1 °F 50.4 °F 29.91 in WSW 9.0 mph 17.0 mph 57% 0.00 in
20:04 65.8 °F 50.6 °F 29.91 in SW 5.0 mph 11.0 mph 58% 0.00 in
20:09 65.4 °F 50.2 °F 29.91 in SW 6.0 mph 15.0 mph 58% 0.00 in
20:14 65.2 °F 50.5 °F 29.91 in SW 6.0 mph 15.0 mph 59% 0.00 in
20:19 65.1 °F 50.4 °F 29.91 in SW 6.0 mph 12.0 mph 59% 0.00 in
20:24 64.9 °F 50.7 °F 29.91 in SW 6.0 mph 12.0 mph 60% 0.00 in
20:29 64.7 °F 50.9 °F 29.91 in SW 6.0 mph 13.0 mph 61% 0.00 in
20:34 64.5 °F 50.7 °F 29.90 in WSW 4.0 mph 13.0 mph 61% 0.00 in
20:39 64.5 °F 50.7 °F 29.90 in SW 7.0 mph 15.0 mph 61% 0.00 in
20:44 64.3 °F 50.6 °F 29.91 in SW 6.0 mph 15.0 mph 61% 0.00 in
20:49 64.3 °F 50.6 °F 29.90 in WSW 7.0 mph 10.0 mph 61% 0.00 in
20:54 64.3 °F 50.1 °F 29.90 in SW 3.0 mph 8.0 mph 60% 0.00 in
20:59 64.4 °F 50.2 °F 29.90 in SSW 3.0 mph 8.0 mph 60% 0.00 in
21:04 64.6 °F 49.9 °F 29.90 in South 6.0 mph 11.0 mph 59% 0.00 in
21:09 64.7 °F 50.0 °F 29.90 in SW 6.0 mph 12.0 mph 59% 0.00 in
21:14 64.6 °F 49.9 °F 29.90 in SW 6.0 mph 12.0 mph 59% 0.00 in
21:19 64.5 °F 49.8 °F 29.90 in SW 5.0 mph 12.0 mph 59% 0.00 in
21:24 64.5 °F 48.9 °F 29.91 in SW 6.0 mph 11.0 mph 57% 0.00 in
21:29 64.7 °F 48.6 °F 29.91 in WSW 3.0 mph 12.0 mph 56% 0.00 in
21:34 64.7 °F 48.6 °F 29.91 in SSW 7.0 mph 11.0 mph 56% 0.00 in
21:39 64.8 °F 48.2 °F 29.91 in WSW 5.0 mph 9.0 mph 55% 0.00 in
21:44 64.8 °F 47.8 °F 29.91 in SW 5.0 mph 11.0 mph 54% 0.00 in
21:49 64.9 °F 47.9 °F 29.91 in SW 7.0 mph 13.0 mph 54% 0.00 in
21:54 65.0 °F 47.4 °F 29.91 in WSW 3.0 mph 9.0 mph 53% 0.00 in
21:59 65.0 °F 47.4 °F 29.91 in WSW 8.0 mph 9.0 mph 53% 0.00 in
22:04 65.0 °F 47.4 °F 29.91 in SSW 3.0 mph 8.0 mph 53% 0.00 in
22:09 64.9 °F 47.4 °F 29.91 in South 2.0 mph 9.0 mph 53% 0.00 in
22:14 64.9 °F 46.8 °F 29.91 in SW 4.0 mph 10.0 mph 52% 0.00 in
22:19 65.0 °F 47.4 °F 29.91 in SW 4.0 mph 10.0 mph 53% 0.00 in
22:24 65.1 °F 47.0 °F 29.91 in SW 4.0 mph 9.0 mph 52% 0.00 in
22:29 65.2 °F 47.1 °F 29.91 in SW 4.0 mph 9.0 mph 52% 0.00 in
22:34 65.0 °F 47.4 °F 29.92 in SW 4.0 mph 9.0 mph 53% 0.00 in
22:39 64.7 °F 47.2 °F 29.91 in SSW 3.0 mph 9.0 mph 53% 0.00 in
22:44 64.6 °F 47.6 °F 29.91 in SW 4.0 mph 9.0 mph 54% 0.00 in
22:49 64.4 °F 47.4 °F 29.91 in WSW 3.0 mph 9.0 mph 54% 0.00 in
22:54 64.6 °F 47.1 °F 29.91 in SW 4.0 mph 12.0 mph 53% 0.00 in
22:59 64.5 °F 47.0 °F 29.91 in SW 2.0 mph 8.0 mph 53% 0.00 in
23:04 64.5 °F 47.0 °F 29.91 in SW 4.0 mph 9.0 mph 53% 0.00 in
23:09 64.7 °F 46.7 °F 29.91 in SW 2.0 mph 9.0 mph 52% 0.00 in
23:14 64.9 °F 46.8 °F 29.91 in SW 4.0 mph 12.0 mph 52% 0.00 in
23:19 64.8 °F 46.8 °F 29.91 in SW 4.0 mph 12.0 mph 52% 0.00 in
23:24 64.6 °F 47.1 °F 29.91 in SW 4.0 mph 11.0 mph 53% 0.00 in
23:29 64.4 °F 46.9 °F 29.91 in SSW 5.0 mph 8.0 mph 53% 0.00 in
23:34 64.3 °F 46.8 °F 29.91 in SSW 2.0 mph 7.0 mph 53% 0.00 in
23:39 64.0 °F 47.0 °F 29.91 in SSW 3.0 mph 7.0 mph 54% 0.00 in
23:44 63.8 °F 47.3 °F 29.91 in SSW 3.0 mph 7.0 mph 55% 0.00 in
23:49 63.8 °F 47.3 °F 29.90 in SSW 3.0 mph 9.0 mph 55% 0.00 in
23:54 64.0 °F 47.5 °F 29.90 in SW 5.0 mph 8.0 mph 55% 0.00 in
23:59 64.1 °F 47.6 °F 29.90 in SW 3.0 mph 6.0 mph 55% 0.00 in
Buffalo, New York, USA
Compliments of Weather Underground - 2.5 mb